createdAt,value
2023-01-18T00:01:53.051Z,20.60
2023-01-18T00:04:26.187Z,15.70
2023-01-18T00:06:59.514Z,22.90
2023-01-18T00:09:32.805Z,23.55
2023-01-18T00:12:06.221Z,21.35
2023-01-18T00:14:39.645Z,22.87
2023-01-18T00:17:13.137Z,25.95
2023-01-18T00:19:46.377Z,20.00
2023-01-18T00:22:19.717Z,20.10
2023-01-18T00:24:52.910Z,18.23
2023-01-18T00:27:26.437Z,21.52
2023-01-18T00:30:00.210Z,22.25
2023-01-18T00:32:34.773Z,26.25
2023-01-18T00:35:09.410Z,20.50
2023-01-18T00:37:42.789Z,21.17
2023-01-18T00:40:17.039Z,23.22
2023-01-18T00:43:07.848Z,17.20
2023-01-18T00:45:41.982Z,23.70
2023-01-18T00:48:15.082Z,20.82
2023-01-18T00:50:48.223Z,19.80
2023-01-18T00:53:21.363Z,18.45
2023-01-18T00:55:54.546Z,21.95
2023-01-18T00:58:28.429Z,20.60
2023-01-18T01:01:02.385Z,21.30
2023-01-18T01:03:54.945Z,18.62
2023-01-18T01:06:46.624Z,17.00
2023-01-18T01:09:22.310Z,20.32
2023-01-18T01:15:08.529Z,21.27
2023-01-18T01:17:59.575Z,20.27
2023-01-18T01:20:50.416Z,17.62
2023-01-18T01:23:42.633Z,21.48
2023-01-18T01:26:15.829Z,24.32
2023-01-18T01:28:52.978Z,16.70
2023-01-18T01:31:26.396Z,23.45
2023-01-18T01:33:59.814Z,20.77
2023-01-18T01:36:35.113Z,17.80
2023-01-18T01:39:10.196Z,16.45
2023-01-18T01:41:43.639Z,13.80
2023-01-18T01:44:45.559Z,17.60
2023-01-18T01:47:28.017Z,15.93
2023-01-18T01:50:04.751Z,19.05
2023-01-18T01:52:41.096Z,20.43
2023-01-18T01:55:21.262Z,20.32
2023-01-18T01:57:58.041Z,17.55
2023-01-18T02:00:32.092Z,15.58
2023-01-18T02:03:07.656Z,21.75
2023-01-18T02:05:44.263Z,18.17
2023-01-18T02:08:20.309Z,17.27
2023-01-18T02:10:54.257Z,19.80
2023-01-18T02:13:28.997Z,19.70
2023-01-18T02:16:05.813Z,14.33
2023-01-18T02:18:42.105Z,16.05
2023-01-18T02:21:20.637Z,16.50
2023-01-18T02:24:39.373Z,15.10
2023-01-18T02:27:19.176Z,16.42
2023-01-18T02:30:05.185Z,17.27
2023-01-18T02:32:57.517Z,16.85
2023-01-18T02:35:37.704Z,14.15
2023-01-18T02:38:13.840Z,14.40
2023-01-18T02:41:06.192Z,17.10
2023-01-18T02:44:00.268Z,15.90
2023-01-18T02:46:35.059Z,18.42
2023-01-18T02:49:11.668Z,18.62
2023-01-18T02:51:45.200Z,16.90
2023-01-18T02:54:20.904Z,18.48
2023-01-18T02:56:56.353Z,18.07
2023-01-18T02:59:32.885Z,15.13
2023-01-18T03:02:09.604Z,16.48
2023-01-18T03:04:47.491Z,15.63
2023-01-18T03:07:23.726Z,15.95
2023-01-18T03:09:58.210Z,15.38
2023-01-18T03:12:35.313Z,17.55
2023-01-18T03:15:13.159Z,16.48
2023-01-18T03:17:49.665Z,18.98
2023-01-18T03:20:26.320Z,18.25
2023-01-18T03:23:19.639Z,23.57
2023-01-18T03:25:55.722Z,20.70
2023-01-18T03:28:49.301Z,19.45
2023-01-18T03:31:43.555Z,18.25
2023-01-18T03:34:20.116Z,19.20
2023-01-18T03:36:55.165Z,24.55
2023-01-18T03:39:31.792Z,20.10
2023-01-18T03:42:08.226Z,18.37
2023-01-18T03:44:44.653Z,19.73
2023-01-18T03:47:18.238Z,17.65
2023-01-18T03:49:51.730Z,15.58
2023-01-18T03:52:27.389Z,20.97
2023-01-18T03:55:04.241Z,20.80
2023-01-18T03:57:40.940Z,21.35
2023-01-18T04:00:16.544Z,19.60
2023-01-18T04:02:51.406Z,19.05
2023-01-18T04:05:25.379Z,19.67
2023-01-18T04:07:58.877Z,13.68
2023-01-18T04:10:32.348Z,19.65
2023-01-18T04:13:05.456Z,16.52
2023-01-18T04:15:39.417Z,17.10
2023-01-18T04:18:12.981Z,15.75
2023-01-18T04:20:47.385Z,16.42
2023-01-18T04:23:21.029Z,16.37
2023-01-18T04:25:54.406Z,19.48
2023-01-18T04:28:28.208Z,19.60
2023-01-18T04:31:01.685Z,14.07
2023-01-18T04:33:36.936Z,14.10
2023-01-18T04:36:11.223Z,15.35
2023-01-18T04:38:44.346Z,17.12
2023-01-18T04:41:17.856Z,14.95
2023-01-18T04:43:51.306Z,14.98
2023-01-18T04:46:24.558Z,20.68
2023-01-18T04:48:58.125Z,14.85
2023-01-18T04:51:31.615Z,15.35
2023-01-18T04:54:04.802Z,17.23
2023-01-18T04:56:37.992Z,17.60
2023-01-18T04:59:14.721Z,20.30
2023-01-18T05:01:48.785Z,17.40
2023-01-18T05:04:22.506Z,19.95
2023-01-18T05:06:55.770Z,17.73
2023-01-18T05:09:28.962Z,17.40
2023-01-18T05:12:02.379Z,13.58
2023-01-18T05:14:35.640Z,19.10
2023-01-18T05:17:08.784Z,15.63
2023-01-18T05:19:42.015Z,16.67
2023-01-18T05:22:15.413Z,14.60
2023-01-18T05:24:48.671Z,16.52
2023-01-18T05:27:22.786Z,14.65
2023-01-18T05:29:56.002Z,19.25
2023-01-18T05:32:29.159Z,15.32
2023-01-18T05:35:02.387Z,18.55
2023-01-18T05:37:36.044Z,14.43
2023-01-18T05:40:12.977Z,17.00
2023-01-18T05:42:46.353Z,16.75
2023-01-18T05:45:20.180Z,17.48
2023-01-18T05:47:54.752Z,18.55
2023-01-18T05:50:27.981Z,15.72
2023-01-18T05:53:01.899Z,19.00
2023-01-18T05:55:35.603Z,19.27
2023-01-18T05:58:09.116Z,19.85
2023-01-18T06:00:42.547Z,16.48
2023-01-18T06:03:16.024Z,20.57
2023-01-18T06:05:51.578Z,12.23
2023-01-18T06:08:25.198Z,17.92
2023-01-18T06:10:59.973Z,14.03
2023-01-18T06:13:34.297Z,13.50
2023-01-18T06:16:09.244Z,15.10
2023-01-18T06:18:42.833Z,15.28
2023-01-18T06:21:18.077Z,13.43
2023-01-18T06:23:51.498Z,18.15
2023-01-18T06:26:24.974Z,15.58
2023-01-18T06:28:58.543Z,17.67
2023-01-18T06:31:32.068Z,20.05
2023-01-18T06:34:07.402Z,20.52
2023-01-18T06:36:40.830Z,14.33
2023-01-18T06:39:14.429Z,16.35
2023-01-18T06:41:50.382Z,14.35
2023-01-18T06:44:27.433Z,16.25
2023-01-18T06:47:02.031Z,14.98
2023-01-18T06:49:35.884Z,15.85
2023-01-18T06:52:09.610Z,15.18
2023-01-18T06:54:45.154Z,14.10
2023-01-18T06:57:18.657Z,17.85
2023-01-18T06:59:53.401Z,21.35
2023-01-18T07:02:26.686Z,18.40
2023-01-18T07:05:00.055Z,18.98
2023-01-18T07:07:35.000Z,18.32
2023-01-18T07:10:10.781Z,20.75
2023-01-18T07:12:45.922Z,22.85
2023-01-18T07:15:28.455Z,16.90
2023-01-18T07:18:05.069Z,16.02
2023-01-18T07:20:38.609Z,17.90
2023-01-18T07:23:12.125Z,16.75
2023-01-18T07:25:45.683Z,16.77
2023-01-18T07:28:19.067Z,16.48
2023-01-18T07:30:52.927Z,15.15
2023-01-18T07:33:26.855Z,18.85
2023-01-18T07:36:01.684Z,21.55
2023-01-18T07:38:36.126Z,16.30
2023-01-18T07:41:11.858Z,15.32
2023-01-18T07:43:45.633Z,16.77
2023-01-18T07:46:20.976Z,15.35
2023-01-18T07:48:54.781Z,17.92
2023-01-18T07:51:28.409Z,15.23
2023-01-18T07:54:01.875Z,18.92
2023-01-18T07:56:34.987Z,17.25
2023-01-18T07:59:08.851Z,18.85
2023-01-18T08:01:42.481Z,12.18
2023-01-18T08:04:16.570Z,14.90
2023-01-18T08:06:49.891Z,14.00
2023-01-18T08:09:23.424Z,14.38
2023-01-18T08:11:56.745Z,16.10
2023-01-18T08:14:30.285Z,13.05
2023-01-18T08:17:03.851Z,13.35
2023-01-18T08:19:37.335Z,15.35
2023-01-18T08:22:10.925Z,13.55
2023-01-18T08:24:44.406Z,13.30
2023-01-18T08:27:17.803Z,13.68
2023-01-18T08:29:51.265Z,12.55
2023-01-18T08:32:25.603Z,14.07
2023-01-18T08:34:59.128Z,14.93
2023-01-18T08:37:32.903Z,14.35
2023-01-18T08:40:07.052Z,17.67
2023-01-18T08:42:40.611Z,14.50
2023-01-18T08:45:14.601Z,16.55
2023-01-18T08:47:49.258Z,16.52
2023-01-18T08:50:23.316Z,14.90
2023-01-18T08:52:59.120Z,15.05
2023-01-18T08:55:34.957Z,17.67
2023-01-18T08:58:08.688Z,17.55
2023-01-18T09:00:42.316Z,18.17
2023-01-18T09:03:15.973Z,15.72
2023-01-18T09:05:49.611Z,12.60
2023-01-18T09:08:23.027Z,19.27
2023-01-18T09:10:56.680Z,14.07
2023-01-18T09:13:30.137Z,13.18
2023-01-18T09:16:05.814Z,15.25
2023-01-18T09:18:39.939Z,16.27
2023-01-18T09:21:16.611Z,14.05
2023-01-18T09:23:51.670Z,15.90
2023-01-18T09:26:25.281Z,13.62
2023-01-18T09:28:58.921Z,14.15
2023-01-18T09:31:32.753Z,14.13
2023-01-18T09:34:18.831Z,16.35
2023-01-18T09:36:42.429Z,18.05
2023-01-18T09:39:16.035Z,14.60
2023-01-18T09:41:55.284Z,18.05
2023-01-18T09:44:31.859Z,16.80
2023-01-18T09:47:08.569Z,19.98
2023-01-18T09:49:46.573Z,14.58
2023-01-18T09:52:29.004Z,13.98
2023-01-18T09:55:07.627Z,19.57
2023-01-18T09:57:50.553Z,21.07
2023-01-18T10:00:26.220Z,16.52
2023-01-18T10:03:02.618Z,20.08
2023-01-18T10:05:38.943Z,21.17
2023-01-18T10:08:16.267Z,21.25
2023-01-18T10:10:53.506Z,21.30
2023-01-18T10:16:28.184Z,17.80
2023-01-18T10:19:02.494Z,23.00
2023-01-18T10:21:45.270Z,14.03
2023-01-18T10:24:35.823Z,20.92
2023-01-18T10:27:38.599Z,14.13
2023-01-18T10:30:30.333Z,14.87
2023-01-18T10:33:07.426Z,14.93
2023-01-18T10:35:45.464Z,17.87
2023-01-18T10:38:22.128Z,17.32
2023-01-18T10:40:59.110Z,13.85
2023-01-18T10:43:33.470Z,20.35
2023-01-18T10:46:14.461Z,14.85
2023-01-18T10:48:50.246Z,15.28
2023-01-18T10:54:29.429Z,13.70
2023-01-18T10:57:09.181Z,14.35
2023-01-18T10:59:43.035Z,14.40
2023-01-18T11:02:24.940Z,15.10
2023-01-18T11:05:01.727Z,17.57
2023-01-18T11:07:35.413Z,12.80
2023-01-18T11:10:14.980Z,15.65
2023-01-18T11:12:50.324Z,19.77
2023-01-18T11:15:32.295Z,15.72
2023-01-18T11:18:13.257Z,13.15
2023-01-18T11:20:50.745Z,12.65
2023-01-18T11:23:27.054Z,13.20
2023-01-18T11:26:04.375Z,13.80
2023-01-18T11:28:41.313Z,13.00
2023-01-18T11:31:18.200Z,15.10
2023-01-18T11:33:55.030Z,14.40
2023-01-18T11:36:40.590Z,13.48
2023-01-18T11:39:31.481Z,15.85
2023-01-18T11:42:18.568Z,13.70
2023-01-18T11:45:01.510Z,15.18
2023-01-18T11:47:40.431Z,17.62
2023-01-18T11:50:22.376Z,17.50
2023-01-18T11:53:01.012Z,14.80
2023-01-18T11:55:38.185Z,14.73
2023-01-18T11:58:17.049Z,15.70
2023-01-18T12:00:55.638Z,18.70
2023-01-18T12:03:41.453Z,22.25
2023-01-18T12:06:18.115Z,17.92
2023-01-18T12:09:12.295Z,17.10
2023-01-18T12:12:13.507Z,15.18
2023-01-18T12:14:43.935Z,16.90
2023-01-18T12:17:30.853Z,15.68
2023-01-18T12:20:17.978Z,14.33
2023-01-18T12:23:12.290Z,15.85
2023-01-18T12:29:08.652Z,15.63
2023-01-18T12:31:50.560Z,13.38
2023-01-18T12:34:26.930Z,12.93
2023-01-18T12:37:16.710Z,17.10
2023-01-18T12:40:11.170Z,13.70
2023-01-18T12:42:50.872Z,16.97
2023-01-18T12:45:30.820Z,16.42
2023-01-18T12:48:11.118Z,19.17
2023-01-18T12:50:47.467Z,15.58
2023-01-18T12:53:24.847Z,13.83
2023-01-18T12:55:59.713Z,14.40
2023-01-18T12:58:35.161Z,12.70
2023-01-18T13:01:11.925Z,17.42
2023-01-18T13:03:47.922Z,11.80
2023-01-18T13:06:22.210Z,15.80
2023-01-18T13:09:00.483Z,13.32
2023-01-18T13:11:36.660Z,10.90
2023-01-18T13:14:12.895Z,14.53
2023-01-18T13:16:49.457Z,11.28
2023-01-18T13:19:26.031Z,13.88
2023-01-18T13:22:08.479Z,13.35
2023-01-18T13:24:55.219Z,10.65
2023-01-18T13:27:30.426Z,12.40
2023-01-18T13:30:19.526Z,12.18
2023-01-18T13:32:53.705Z,11.88
2023-01-18T13:35:32.688Z,11.88
2023-01-18T13:38:12.864Z,12.55
2023-01-18T13:40:49.112Z,12.10
2023-01-18T13:43:35.262Z,11.85
2023-01-18T13:46:22.165Z,11.53
2023-01-18T13:48:57.536Z,12.95
2023-01-18T13:51:56.800Z,10.20
2023-01-18T13:55:05.683Z,11.90
2023-01-18T13:57:39.098Z,11.53
2023-01-18T14:00:26.143Z,11.05
2023-01-18T14:03:08.162Z,11.35
2023-01-18T14:05:45.146Z,10.93
2023-01-18T14:08:26.257Z,10.90
2023-01-18T14:11:05.035Z,10.82
2023-01-18T14:14:04.901Z,10.03
2023-01-18T14:16:41.154Z,11.48
2023-01-18T14:19:20.150Z,11.10
2023-01-18T14:22:03.875Z,9.63
2023-01-18T14:24:48.147Z,11.83
2023-01-18T14:27:25.093Z,12.70
2023-01-18T14:30:01.726Z,12.47
2023-01-18T14:32:38.906Z,12.28
2023-01-18T14:35:25.455Z,10.68
2023-01-18T14:38:19.139Z,10.98
2023-01-18T14:40:45.984Z,12.45
2023-01-18T14:43:22.497Z,10.03
2023-01-18T14:46:00.405Z,9.68
2023-01-18T14:51:08.702Z,11.40
2023-01-18T14:53:45.546Z,10.70
2023-01-18T14:56:22.105Z,10.72
2023-01-18T14:58:57.522Z,11.97
2023-01-18T15:01:33.993Z,10.00
2023-01-18T15:04:10.164Z,11.33
2023-01-18T15:06:46.418Z,9.53
2023-01-18T15:09:22.952Z,8.48
2023-01-18T15:11:59.569Z,10.65
2023-01-18T15:14:36.023Z,9.85
2023-01-18T15:17:11.727Z,9.25
2023-01-18T15:19:47.848Z,10.15
2023-01-18T15:22:24.537Z,11.65
2023-01-18T15:25:00.552Z,9.58
2023-01-18T15:27:35.488Z,8.05
2023-01-18T15:30:16.835Z,10.03
2023-01-18T15:32:52.469Z,10.08
2023-01-18T15:35:26.894Z,10.43
2023-01-18T15:38:02.256Z,10.10
2023-01-18T15:40:35.945Z,10.00
2023-01-18T15:43:12.497Z,9.88
2023-01-18T15:45:49.719Z,9.38
2023-01-18T15:48:25.514Z,9.95
2023-01-18T15:51:08.327Z,9.63
2023-01-18T15:53:48.370Z,9.80
2023-01-18T15:56:25.182Z,10.60
2023-01-18T15:59:01.895Z,10.85
2023-01-18T16:01:36.315Z,11.12
2023-01-18T16:04:23.132Z,9.48
2023-01-18T16:06:58.637Z,9.77
2023-01-18T16:09:33.599Z,9.50
2023-01-18T16:12:08.082Z,8.90
2023-01-18T16:14:43.664Z,9.45
2023-01-18T16:17:19.565Z,10.43
2023-01-18T16:19:55.405Z,10.53
2023-01-18T16:22:30.279Z,9.25
2023-01-18T16:25:06.055Z,9.23
2023-01-18T16:27:49.264Z,12.73
2023-01-18T16:30:25.369Z,10.48
2023-01-18T16:33:10.043Z,10.58
2023-01-18T16:35:43.275Z,10.72
2023-01-18T16:38:18.916Z,7.55
2023-01-18T16:40:53.344Z,9.18
2023-01-18T16:43:29.673Z,12.45
2023-01-18T16:46:04.674Z,7.70
2023-01-18T16:48:38.316Z,8.33
2023-01-18T16:51:20.575Z,7.62
2023-01-18T16:53:54.153Z,10.05
2023-01-18T16:56:27.313Z,11.57
2023-01-18T16:59:00.763Z,10.58
2023-01-18T17:01:34.829Z,12.53
2023-01-18T17:04:10.720Z,11.63
2023-01-18T17:06:45.209Z,10.93
2023-01-18T17:09:24.236Z,8.63
2023-01-18T17:11:57.942Z,10.00
2023-01-18T17:14:34.414Z,10.93
2023-01-18T17:17:10.518Z,11.48
2023-01-18T17:19:44.283Z,12.90
2023-01-18T17:22:17.743Z,9.05
2023-01-18T17:24:52.845Z,11.03
2023-01-18T17:27:26.211Z,11.35
2023-01-18T17:30:01.095Z,11.73
2023-01-18T17:32:34.867Z,10.63
2023-01-18T17:35:10.197Z,12.07
2023-01-18T17:37:43.607Z,11.30
2023-01-18T17:40:27.337Z,11.95
2023-01-18T17:42:54.419Z,14.38
2023-01-18T17:45:28.186Z,15.32
2023-01-18T17:48:01.697Z,12.28
2023-01-18T17:50:37.106Z,14.25
2023-01-18T17:53:10.990Z,13.40
2023-01-18T17:55:44.441Z,14.07
2023-01-18T17:58:18.201Z,14.85
2023-01-18T18:00:52.315Z,14.65
2023-01-18T18:03:27.599Z,14.98
2023-01-18T18:06:02.500Z,17.40
2023-01-18T18:08:36.652Z,15.90
2023-01-18T18:11:11.284Z,13.60
2023-01-18T18:13:45.123Z,13.58
2023-01-18T18:16:19.399Z,15.85
2023-01-18T18:18:53.412Z,16.02
2023-01-18T18:21:27.474Z,14.03
2023-01-18T18:24:01.184Z,13.90
2023-01-18T18:26:34.784Z,15.83
2023-01-18T18:29:09.057Z,19.32
2023-01-18T18:31:44.048Z,13.08
2023-01-18T18:34:17.502Z,16.65
2023-01-18T18:36:51.044Z,16.20
2023-01-18T18:39:24.938Z,14.38
2023-01-18T18:41:58.917Z,18.02
2023-01-18T18:44:32.649Z,19.02
2023-01-18T18:47:07.548Z,19.00
2023-01-18T18:49:41.467Z,16.70
2023-01-18T18:52:15.058Z,15.78
2023-01-18T18:54:48.515Z,15.55
2023-01-18T18:57:23.349Z,16.82
2023-01-18T18:59:56.728Z,14.47
2023-01-18T19:02:30.855Z,18.98
2023-01-18T19:05:04.518Z,15.38
2023-01-18T19:07:38.075Z,15.72
2023-01-18T19:10:14.828Z,16.05
2023-01-18T19:12:48.330Z,15.40
2023-01-18T19:15:21.721Z,17.25
2023-01-18T19:17:55.551Z,13.35
2023-01-18T19:20:29.564Z,16.25
2023-01-18T19:23:03.586Z,22.52
2023-01-18T19:25:38.795Z,16.57
2023-01-18T19:28:15.354Z,17.73
2023-01-18T19:30:49.139Z,16.52
2023-01-18T19:33:22.646Z,16.62
2023-01-18T19:36:01.636Z,18.70
2023-01-18T19:38:38.732Z,18.65
2023-01-18T19:41:10.852Z,19.45
2023-01-18T19:43:44.729Z,13.25
2023-01-18T19:46:20.432Z,14.68
2023-01-18T19:49:00.451Z,17.67
2023-01-18T19:51:36.494Z,17.12
2023-01-18T19:54:12.647Z,15.60
2023-01-18T19:56:47.066Z,18.65
2023-01-18T19:59:20.646Z,20.17
2023-01-18T20:01:55.141Z,18.05
2023-01-18T20:04:31.402Z,18.10
2023-01-18T20:07:04.885Z,15.98
2023-01-18T20:09:43.353Z,17.48
2023-01-18T20:12:14.055Z,15.03
2023-01-18T20:14:47.539Z,17.30
2023-01-18T20:17:21.306Z,16.80
2023-01-18T20:19:54.950Z,19.65
2023-01-18T20:22:28.842Z,16.50
2023-01-18T20:25:02.564Z,20.23
2023-01-18T20:27:35.917Z,18.95
2023-01-18T20:30:14.668Z,20.23
2023-01-18T20:32:47.985Z,17.15
2023-01-18T20:35:21.545Z,21.35
2023-01-18T20:37:55.342Z,20.48
2023-01-18T20:40:28.747Z,25.23
2023-01-18T20:43:02.815Z,21.25
2023-01-18T20:45:36.035Z,19.50
2023-01-18T20:48:10.017Z,20.52
2023-01-18T20:50:43.509Z,21.25
2023-01-18T20:53:17.011Z,26.57
2023-01-18T20:55:50.056Z,22.30
2023-01-18T20:58:26.176Z,22.45
2023-01-18T21:01:01.134Z,23.50
2023-01-18T21:03:34.591Z,27.98
2023-01-18T21:06:09.719Z,31.00
2023-01-18T21:08:43.234Z,21.23
2023-01-18T21:11:17.682Z,21.40
2023-01-18T21:13:51.296Z,27.27
2023-01-18T21:16:25.714Z,16.77
2023-01-18T21:18:59.681Z,20.72
2023-01-18T21:21:33.189Z,21.95
2023-01-18T21:24:07.970Z,20.97
2023-01-18T21:26:41.453Z,22.30
2023-01-18T21:29:15.162Z,21.33
2023-01-18T21:31:50.413Z,20.82
2023-01-18T21:34:24.238Z,18.92
2023-01-18T21:36:57.686Z,22.50
2023-01-18T21:39:31.031Z,20.23
2023-01-18T21:42:22.189Z,15.40
2023-01-18T21:45:13.047Z,23.40
2023-01-18T21:47:46.460Z,18.85
2023-01-18T21:50:37.692Z,18.17
2023-01-18T21:53:33.228Z,25.25
2023-01-18T21:56:07.247Z,22.67
2023-01-18T21:58:57.786Z,18.25
2023-01-18T22:01:34.455Z,20.48
2023-01-18T22:04:26.897Z,16.00
2023-01-18T22:07:03.558Z,19.15
2023-01-18T22:09:38.606Z,21.42
2023-01-18T22:12:12.019Z,18.92
2023-01-18T22:14:45.680Z,20.55
2023-01-18T22:17:19.750Z,15.58
2023-01-18T22:19:53.338Z,19.70
2023-01-18T22:22:27.094Z,19.30
2023-01-18T22:25:02.455Z,16.35
2023-01-18T22:27:35.797Z,21.77
2023-01-18T22:30:12.139Z,18.98
2023-01-18T22:32:45.752Z,25.10
2023-01-18T22:35:19.154Z,16.80
2023-01-18T22:37:52.635Z,22.17
2023-01-18T22:40:26.197Z,24.12
2023-01-18T22:42:59.737Z,22.82
2023-01-18T22:45:33.314Z,16.12
2023-01-18T22:48:07.535Z,20.02
2023-01-18T22:50:40.978Z,17.80
2023-01-18T22:53:14.439Z,18.65
2023-01-18T22:55:47.814Z,18.52
2023-01-18T22:58:21.316Z,17.60
2023-01-18T23:00:54.841Z,15.83
2023-01-18T23:03:29.801Z,19.27
2023-01-18T23:06:03.999Z,14.98
2023-01-18T23:08:40.995Z,16.45
2023-01-18T23:11:16.811Z,23.43
2023-01-18T23:14:10.654Z,21.82
2023-01-18T23:17:02.535Z,18.77
2023-01-18T23:19:37.515Z,16.45
2023-01-18T23:22:11.423Z,16.60
2023-01-18T23:24:45.075Z,12.88
2023-01-18T23:27:18.733Z,16.57
2023-01-18T23:29:54.053Z,16.57
2023-01-18T23:32:30.053Z,14.73
2023-01-18T23:35:03.842Z,15.23
2023-01-18T23:37:37.141Z,16.57
2023-01-18T23:40:31.137Z,10.50
2023-01-18T23:43:22.014Z,14.55
2023-01-18T23:46:12.991Z,12.58
2023-01-18T23:49:03.542Z,14.70
2023-01-18T23:51:54.290Z,15.35
2023-01-18T23:54:27.753Z,14.00
2023-01-18T23:57:01.146Z,16.32
2023-01-18T23:59:34.863Z,12.90
